createdAt,value
2019-03-29T00:00:14.713Z,6.30
2019-03-29T00:02:43.099Z,7.33
2019-03-29T00:05:11.610Z,7.67
2019-03-29T00:07:41.833Z,6.00
2019-03-29T00:10:09.856Z,7.97
2019-03-29T00:12:38.141Z,5.47
2019-03-29T00:15:07.363Z,7.33
2019-03-29T00:17:36.408Z,5.67
2019-03-29T00:20:07.550Z,9.90
2019-03-29T00:22:35.789Z,6.83
2019-03-29T00:25:04.069Z,6.78
2019-03-29T00:27:32.322Z,7.58
2019-03-29T00:30:00.709Z,5.67
2019-03-29T00:32:29.112Z,6.47
2019-03-29T00:34:57.401Z,5.50
2019-03-29T00:37:25.648Z,6.28
2019-03-29T00:39:53.908Z,5.72
2019-03-29T00:42:22.172Z,6.45
2019-03-29T00:44:50.438Z,6.22
2019-03-29T00:47:18.700Z,6.83
2019-03-29T00:49:47.116Z,6.62
2019-03-29T00:52:16.818Z,7.03
2019-03-29T00:54:45.400Z,6.40
2019-03-29T00:57:13.683Z,7.03
2019-03-29T00:59:41.936Z,6.30
2019-03-29T01:02:10.548Z,4.92
2019-03-29T01:04:38.791Z,5.37
2019-03-29T01:07:07.145Z,7.67
2019-03-29T01:09:35.455Z,5.85
2019-03-29T01:12:03.725Z,5.20
2019-03-29T01:14:31.995Z,6.30
2019-03-29T01:17:00.252Z,5.42
2019-03-29T01:19:29.216Z,6.17
2019-03-29T01:21:58.147Z,7.28
2019-03-29T01:24:26.450Z,4.97
2019-03-29T01:26:54.716Z,6.22
2019-03-29T01:29:22.965Z,6.47
2019-03-29T01:31:51.257Z,5.42
2019-03-29T01:34:20.492Z,6.10
2019-03-29T01:36:48.781Z,5.67
2019-03-29T01:39:17.238Z,4.50
2019-03-29T01:41:45.571Z,5.47
2019-03-29T01:44:13.838Z,6.45
2019-03-29T01:46:42.100Z,5.80
2019-03-29T01:49:10.327Z,6.22
2019-03-29T01:51:38.693Z,5.85
2019-03-29T01:54:06.967Z,4.25
2019-03-29T01:56:35.224Z,6.95
2019-03-29T01:59:03.536Z,5.80
2019-03-29T02:01:31.769Z,6.28
2019-03-29T02:04:00.297Z,6.35
2019-03-29T02:06:28.765Z,6.78
2019-03-29T02:08:57.018Z,5.85
2019-03-29T02:11:25.292Z,5.08
2019-03-29T02:13:53.549Z,8.30
2019-03-29T02:16:22.439Z,7.97
2019-03-29T02:18:50.714Z,6.78
2019-03-29T02:21:19.040Z,6.72
2019-03-29T02:23:47.320Z,5.58
2019-03-29T02:26:15.607Z,7.45
2019-03-29T02:28:44.846Z,5.67
2019-03-29T02:31:13.307Z,5.47
2019-03-29T02:33:41.631Z,5.60
2019-03-29T02:36:09.895Z,7.20
2019-03-29T02:38:54.137Z,5.78
2019-03-29T02:41:08.179Z,7.03
2019-03-29T02:43:36.542Z,6.67
2019-03-29T02:46:05.985Z,4.85
2019-03-29T02:48:34.237Z,6.65
2019-03-29T02:51:04.509Z,4.92
2019-03-29T02:53:32.783Z,6.28
2019-03-29T02:56:01.037Z,7.40
2019-03-29T02:58:29.307Z,7.20
2019-03-29T03:00:57.737Z,9.10
2019-03-29T03:03:26.046Z,10.05
2019-03-29T03:05:54.549Z,6.95
2019-03-29T03:08:22.899Z,9.48
2019-03-29T03:10:51.132Z,6.92
2019-03-29T03:13:19.407Z,8.20
2019-03-29T03:15:47.675Z,6.30
2019-03-29T03:18:15.943Z,5.22
2019-03-29T03:20:44.214Z,5.47
2019-03-29T03:23:12.485Z,8.35
2019-03-29T03:25:40.734Z,6.10
2019-03-29T03:28:09.012Z,6.28
2019-03-29T03:30:37.298Z,6.55
2019-03-29T03:33:05.627Z,6.47
2019-03-29T03:35:33.964Z,5.10
2019-03-29T03:38:02.254Z,6.72
2019-03-29T03:40:30.595Z,6.47
2019-03-29T03:42:58.853Z,6.83
2019-03-29T03:45:27.112Z,5.42
2019-03-29T03:47:55.389Z,5.95
2019-03-29T03:50:40.672Z,6.03
2019-03-29T03:53:09.692Z,6.22
2019-03-29T03:55:40.850Z,5.92
2019-03-29T03:58:09.969Z,9.63
2019-03-29T04:00:44.422Z,6.75
2019-03-29T04:03:12.684Z,6.95
2019-03-29T04:05:40.921Z,5.95
2019-03-29T04:08:09.156Z,7.10
2019-03-29T04:10:41.939Z,7.28
2019-03-29T04:13:07.393Z,5.62
2019-03-29T04:15:35.763Z,6.85
2019-03-29T04:18:04.091Z,7.80
2019-03-29T04:20:32.447Z,7.10
2019-03-29T04:23:00.683Z,7.03
2019-03-29T04:25:28.962Z,6.80
2019-03-29T04:27:57.209Z,8.13
2019-03-29T04:30:25.797Z,8.08
2019-03-29T04:32:54.037Z,7.83
2019-03-29T04:35:22.291Z,7.00
2019-03-29T04:37:50.591Z,8.83
2019-03-29T04:40:18.833Z,7.40
2019-03-29T04:42:47.098Z,9.23
2019-03-29T04:45:15.372Z,6.58
2019-03-29T04:47:43.622Z,6.15
2019-03-29T04:50:12.380Z,8.85
2019-03-29T04:52:40.711Z,8.15
2019-03-29T04:55:08.993Z,6.53
2019-03-29T04:57:37.453Z,6.87
2019-03-29T05:00:06.658Z,6.62
2019-03-29T05:02:35.050Z,7.90
2019-03-29T05:05:04.480Z,7.17
2019-03-29T05:07:32.721Z,7.90
2019-03-29T05:10:00.988Z,9.18
2019-03-29T05:12:29.236Z,7.55
2019-03-29T05:14:57.640Z,8.00
2019-03-29T05:17:25.903Z,7.50
2019-03-29T05:19:54.204Z,8.15
2019-03-29T05:22:22.522Z,10.38
2019-03-29T05:24:50.808Z,7.78
2019-03-29T05:27:19.102Z,8.50
2019-03-29T05:29:47.352Z,8.45
2019-03-29T05:32:15.608Z,8.90
2019-03-29T05:34:44.025Z,9.23
2019-03-29T05:37:12.308Z,9.73
2019-03-29T05:39:40.734Z,9.20
2019-03-29T05:42:09.195Z,7.47
2019-03-29T05:44:40.623Z,8.95
2019-03-29T05:47:07.643Z,7.05
2019-03-29T05:49:35.863Z,7.37
2019-03-29T05:52:04.246Z,9.18
2019-03-29T05:54:32.588Z,7.78
2019-03-29T05:57:00.824Z,7.97
2019-03-29T05:59:29.206Z,8.73
2019-03-29T06:01:57.487Z,8.15
2019-03-29T06:04:25.840Z,7.05
2019-03-29T06:06:54.124Z,8.13
2019-03-29T06:09:22.529Z,7.60
2019-03-29T06:11:50.769Z,9.70
2019-03-29T06:14:19.085Z,8.45
2019-03-29T06:16:47.302Z,10.35
2019-03-29T06:19:15.630Z,8.58
2019-03-29T06:21:43.855Z,8.00
2019-03-29T06:24:12.079Z,8.60
2019-03-29T06:26:40.447Z,7.80
2019-03-29T06:29:08.703Z,14.58
2019-03-29T06:31:36.983Z,11.53
2019-03-29T06:34:05.257Z,7.22
2019-03-29T06:36:33.535Z,11.10
2019-03-29T06:39:01.937Z,10.10
2019-03-29T06:41:30.201Z,15.95
2019-03-29T06:43:58.475Z,11.53
2019-03-29T06:46:26.807Z,11.55
2019-03-29T06:48:55.114Z,16.07
2019-03-29T06:51:23.346Z,13.45
2019-03-29T06:53:52.687Z,17.23
2019-03-29T06:56:21.273Z,14.60
2019-03-29T06:58:49.496Z,15.15
2019-03-29T07:01:17.730Z,18.90
2019-03-29T07:03:45.939Z,14.70
2019-03-29T07:06:14.176Z,20.25
2019-03-29T07:08:42.432Z,13.38
2019-03-29T07:11:17.329Z,20.52
2019-03-29T07:13:40.642Z,14.90
2019-03-29T07:16:08.900Z,14.63
2019-03-29T07:18:37.117Z,20.50
2019-03-29T07:21:05.342Z,21.00
2019-03-29T07:23:33.653Z,25.40
2019-03-29T07:26:01.886Z,28.32
2019-03-29T07:28:30.126Z,78.37
2019-03-29T07:30:58.367Z,39.65
2019-03-29T07:33:26.742Z,39.50
2019-03-29T07:35:55.132Z,35.68
2019-03-29T07:38:23.395Z,40.83
2019-03-29T07:40:51.772Z,39.45
2019-03-29T07:43:20.099Z,39.27
2019-03-29T07:45:48.331Z,38.45
2019-03-29T07:48:16.556Z,38.23
2019-03-29T07:50:44.789Z,37.90
2019-03-29T07:53:13.028Z,34.65
2019-03-29T07:55:41.331Z,33.92
2019-03-29T07:58:09.575Z,32.63
2019-03-29T08:00:37.843Z,40.43
2019-03-29T08:03:06.087Z,31.55
2019-03-29T08:05:35.454Z,35.85
2019-03-29T08:08:03.954Z,35.17
2019-03-29T08:10:32.334Z,37.80
2019-03-29T08:13:00.739Z,34.23
2019-03-29T08:15:28.969Z,30.62
2019-03-29T08:18:01.136Z,34.25
2019-03-29T08:20:44.527Z,33.92
2019-03-29T08:22:57.595Z,33.30
2019-03-29T08:25:25.832Z,33.33
2019-03-29T08:27:54.164Z,32.23
2019-03-29T08:30:22.387Z,33.00
2019-03-29T08:32:50.654Z,25.32
2019-03-29T08:35:19.031Z,31.45
2019-03-29T08:37:47.254Z,29.77
2019-03-29T08:40:15.523Z,30.48
2019-03-29T08:42:44.144Z,32.38
2019-03-29T08:45:12.445Z,30.02
2019-03-29T08:47:40.777Z,27.90
2019-03-29T08:50:09.305Z,30.55
2019-03-29T08:52:37.703Z,32.30
2019-03-29T08:55:06.609Z,30.92
2019-03-29T08:57:34.829Z,28.17
2019-03-29T09:00:05.068Z,30.50
2019-03-29T09:02:33.318Z,27.77
2019-03-29T09:05:01.919Z,27.75
2019-03-29T09:07:43.618Z,25.85
2019-03-29T09:10:00.411Z,29.63
2019-03-29T09:12:28.711Z,29.42
2019-03-29T09:14:56.939Z,28.73
2019-03-29T09:17:25.249Z,30.23
2019-03-29T09:19:53.524Z,30.17
2019-03-29T09:22:21.757Z,29.50
2019-03-29T09:24:50.925Z,26.95
2019-03-29T09:27:19.182Z,29.82
2019-03-29T09:29:47.450Z,30.05
2019-03-29T09:32:15.702Z,28.90
2019-03-29T09:34:43.946Z,32.05
2019-03-29T09:37:12.275Z,29.50
2019-03-29T09:39:40.677Z,32.90
2019-03-29T09:42:09.790Z,31.82
2019-03-29T09:44:38.350Z,25.92
2019-03-29T09:47:06.601Z,28.50
2019-03-29T09:49:34.853Z,28.77
2019-03-29T09:52:03.080Z,31.37
2019-03-29T09:54:31.394Z,31.23
2019-03-29T09:56:59.686Z,29.87
2019-03-29T09:59:27.909Z,33.28
2019-03-29T10:01:56.139Z,33.00
2019-03-29T10:04:24.360Z,32.78
2019-03-29T10:06:52.694Z,31.10
2019-03-29T10:09:20.920Z,29.55
2019-03-29T10:11:49.188Z,31.85
2019-03-29T10:14:17.426Z,28.60
2019-03-29T10:16:45.839Z,31.35
2019-03-29T10:19:14.064Z,30.70
2019-03-29T10:21:42.312Z,37.17
2019-03-29T10:24:10.551Z,34.43
2019-03-29T10:26:38.811Z,34.50
2019-03-29T10:29:07.048Z,29.90
2019-03-29T10:31:35.290Z,32.55
2019-03-29T10:34:03.539Z,34.45
2019-03-29T10:36:31.787Z,32.03
2019-03-29T10:39:00.026Z,34.60
2019-03-29T10:41:28.264Z,33.53
2019-03-29T10:43:56.836Z,30.65
2019-03-29T10:46:25.072Z,34.50
2019-03-29T10:48:53.328Z,32.83
2019-03-29T10:51:21.683Z,30.88
2019-03-29T10:53:49.912Z,32.00
2019-03-29T10:56:18.157Z,32.88
2019-03-29T10:58:46.391Z,33.73
2019-03-29T11:01:14.627Z,31.17
2019-03-29T11:03:42.859Z,32.78
2019-03-29T11:06:11.154Z,32.42
2019-03-29T11:08:39.385Z,33.98
2019-03-29T11:11:07.701Z,33.18
2019-03-29T11:13:35.953Z,34.48
2019-03-29T11:16:04.180Z,32.88
2019-03-29T11:18:32.432Z,30.60
2019-03-29T11:21:00.751Z,37.40
2019-03-29T11:23:29.231Z,35.55
2019-03-29T11:25:57.454Z,30.88
2019-03-29T11:28:25.714Z,37.08
2019-03-29T11:30:53.957Z,35.58
2019-03-29T11:33:22.239Z,33.65
2019-03-29T11:35:50.629Z,32.60
2019-03-29T11:38:18.853Z,32.17
2019-03-29T11:40:47.483Z,33.20
2019-03-29T11:43:26.439Z,35.28
2019-03-29T11:45:45.879Z,40.23
2019-03-29T11:48:14.163Z,33.42
2019-03-29T11:50:42.423Z,35.38
2019-03-29T11:53:10.809Z,36.70
2019-03-29T11:55:39.044Z,37.63
2019-03-29T11:58:07.276Z,37.75
2019-03-29T12:00:36.421Z,36.75
2019-03-29T12:03:09.411Z,32.42
2019-03-29T12:05:37.524Z,35.45
2019-03-29T12:08:05.747Z,36.85
2019-03-29T12:10:34.282Z,37.30
2019-03-29T12:13:02.519Z,36.75
2019-03-29T12:15:30.801Z,34.03
2019-03-29T12:17:59.059Z,36.65
2019-03-29T12:20:27.299Z,43.40
2019-03-29T12:22:55.595Z,36.93
2019-03-29T12:25:23.824Z,38.20
2019-03-29T12:27:52.100Z,35.68
2019-03-29T12:30:31.407Z,38.20
2019-03-29T12:32:50.595Z,35.63
2019-03-29T12:35:18.831Z,38.70
2019-03-29T12:37:47.148Z,38.10
2019-03-29T12:40:15.360Z,37.17
2019-03-29T12:42:43.636Z,38.85
2019-03-29T12:45:11.861Z,42.48
2019-03-29T12:47:40.097Z,38.35
2019-03-29T12:50:08.327Z,39.92
2019-03-29T12:52:36.571Z,40.48
2019-03-29T12:55:05.571Z,43.48
2019-03-29T12:57:33.807Z,39.05
2019-03-29T13:00:02.033Z,43.13
2019-03-29T13:02:30.272Z,35.65
2019-03-29T13:04:58.483Z,38.75
2019-03-29T13:07:26.742Z,41.73
2019-03-29T13:09:55.011Z,44.48
2019-03-29T13:12:23.304Z,42.45
2019-03-29T13:14:51.539Z,36.60
2019-03-29T13:17:19.843Z,34.08
2019-03-29T13:19:48.089Z,36.50
2019-03-29T13:22:16.596Z,39.27
2019-03-29T13:24:44.854Z,38.95
2019-03-29T13:27:13.143Z,41.20
2019-03-29T13:29:41.460Z,44.08
2019-03-29T13:32:09.703Z,44.18
2019-03-29T13:34:37.936Z,38.05
2019-03-29T13:37:06.382Z,39.80
2019-03-29T13:39:34.743Z,41.30
2019-03-29T13:42:03.003Z,37.20
2019-03-29T13:44:31.224Z,39.30
2019-03-29T13:46:59.458Z,36.33
2019-03-29T13:49:27.686Z,40.35
2019-03-29T13:51:55.928Z,42.13
2019-03-29T13:54:24.225Z,41.40
2019-03-29T13:56:52.424Z,41.58
2019-03-29T13:59:20.819Z,39.65
2019-03-29T14:01:49.041Z,40.78
2019-03-29T14:04:17.411Z,41.18
2019-03-29T14:06:45.662Z,41.95
2019-03-29T14:09:13.912Z,45.17
2019-03-29T14:11:42.122Z,46.02
2019-03-29T14:14:10.370Z,46.55
2019-03-29T14:16:38.792Z,41.63
2019-03-29T14:19:07.440Z,39.95
2019-03-29T14:21:35.638Z,45.45
2019-03-29T14:24:03.871Z,43.52
2019-03-29T14:26:32.120Z,38.38
2019-03-29T14:29:00.382Z,42.93
2019-03-29T14:31:29.529Z,44.45
2019-03-29T14:33:57.731Z,42.80
2019-03-29T14:36:25.976Z,46.45
2019-03-29T14:38:54.206Z,42.30
2019-03-29T14:41:22.450Z,40.40
2019-03-29T14:43:50.698Z,39.18
2019-03-29T14:46:18.937Z,44.98
2019-03-29T14:48:47.156Z,45.17
2019-03-29T14:51:15.449Z,43.85
2019-03-29T14:53:43.805Z,41.13
2019-03-29T14:56:12.136Z,41.98
2019-03-29T14:58:40.371Z,42.25
2019-03-29T15:01:08.599Z,34.20
2019-03-29T15:03:37.015Z,35.33
2019-03-29T15:06:05.258Z,39.03
2019-03-29T15:08:33.555Z,41.18
2019-03-29T15:11:02.298Z,40.55
2019-03-29T15:13:31.067Z,41.18
2019-03-29T15:15:59.433Z,36.15
2019-03-29T15:18:27.689Z,31.65
2019-03-29T15:20:56.080Z,42.55
2019-03-29T15:23:24.363Z,40.03
2019-03-29T15:25:52.651Z,35.92
2019-03-29T15:28:21.312Z,38.33
2019-03-29T15:30:52.269Z,36.55
2019-03-29T15:33:19.552Z,41.35
2019-03-29T15:35:47.782Z,44.65
2019-03-29T15:38:16.135Z,42.95
2019-03-29T15:40:44.907Z,44.50
2019-03-29T15:43:13.352Z,44.15
2019-03-29T15:45:41.643Z,42.78
2019-03-29T15:48:09.983Z,41.15
2019-03-29T15:50:38.236Z,40.65
2019-03-29T15:53:06.481Z,42.23
2019-03-29T15:55:34.707Z,46.70
2019-03-29T15:58:03.062Z,42.03
2019-03-29T16:00:31.355Z,41.33
2019-03-29T16:02:59.625Z,42.33
2019-03-29T16:05:27.876Z,45.50
2019-03-29T16:07:56.251Z,45.00
2019-03-29T16:10:24.504Z,41.53
2019-03-29T16:12:52.718Z,39.48
2019-03-29T16:15:33.468Z,44.27
2019-03-29T16:17:51.410Z,43.92
2019-03-29T16:20:19.722Z,47.55
2019-03-29T16:22:48.219Z,42.40
2019-03-29T16:25:16.518Z,43.23
2019-03-29T16:27:44.801Z,47.95
2019-03-29T16:30:13.272Z,46.15
2019-03-29T16:32:41.504Z,43.23
2019-03-29T16:35:09.781Z,47.75
2019-03-29T16:37:38.014Z,43.92
2019-03-29T16:40:06.879Z,44.38
2019-03-29T16:42:35.406Z,43.10
2019-03-29T16:45:04.854Z,38.23
2019-03-29T16:47:33.617Z,40.75
2019-03-29T16:50:01.829Z,46.77
2019-03-29T16:52:30.065Z,43.95
2019-03-29T16:55:11.884Z,45.20
2019-03-29T16:57:28.504Z,41.33
2019-03-29T16:59:56.785Z,41.85
2019-03-29T17:02:25.126Z,41.77
2019-03-29T17:04:53.394Z,42.20
2019-03-29T17:07:21.712Z,44.58
2019-03-29T17:09:49.999Z,46.50
2019-03-29T17:12:18.558Z,45.88
2019-03-29T17:14:46.806Z,44.27
2019-03-29T17:17:15.091Z,40.43
2019-03-29T17:19:43.414Z,42.53
2019-03-29T17:22:11.776Z,43.58
2019-03-29T17:24:40.022Z,48.58
2019-03-29T17:27:08.268Z,45.20
2019-03-29T17:29:36.522Z,45.20
2019-03-29T17:32:04.761Z,39.58
2019-03-29T17:34:33.071Z,48.98
2019-03-29T17:37:01.303Z,46.58
2019-03-29T17:39:29.680Z,43.75
2019-03-29T17:41:57.967Z,42.25
2019-03-29T17:44:27.615Z,43.87
2019-03-29T17:46:55.979Z,45.83
2019-03-29T17:49:24.284Z,40.92
2019-03-29T17:51:52.621Z,43.55
2019-03-29T17:54:21.692Z,48.83
2019-03-29T17:56:49.941Z,41.08
2019-03-29T17:59:18.537Z,40.50
2019-03-29T18:01:47.204Z,44.30
2019-03-29T18:04:15.500Z,44.38
2019-03-29T18:06:46.887Z,39.60
2019-03-29T18:09:13.765Z,44.18
2019-03-29T18:11:42.094Z,43.65
2019-03-29T18:14:10.314Z,47.65
2019-03-29T18:16:38.546Z,40.90
2019-03-29T18:19:06.831Z,40.75
2019-03-29T18:21:35.097Z,42.05
2019-03-29T18:24:03.582Z,38.95
2019-03-29T18:26:31.792Z,47.73
2019-03-29T18:29:00.219Z,44.98
2019-03-29T18:31:28.463Z,42.90
2019-03-29T18:33:56.779Z,45.75
2019-03-29T18:36:25.305Z,43.42
2019-03-29T18:38:53.520Z,48.05
2019-03-29T18:41:21.754Z,45.08
2019-03-29T18:43:50.052Z,43.42
2019-03-29T18:46:18.456Z,47.78
2019-03-29T18:48:46.705Z,49.90
2019-03-29T18:51:14.928Z,42.50
2019-03-29T18:53:43.192Z,46.83
2019-03-29T18:56:11.478Z,45.63
2019-03-29T18:58:39.910Z,46.15
2019-03-29T19:01:08.246Z,41.28
2019-03-29T19:03:36.519Z,44.18
2019-03-29T19:06:04.768Z,44.65
2019-03-29T19:08:33.078Z,42.08
2019-03-29T19:11:01.323Z,41.63
2019-03-29T19:13:29.601Z,43.00
2019-03-29T19:15:57.948Z,44.25
2019-03-29T19:18:26.247Z,46.63
2019-03-29T19:20:54.518Z,44.35
2019-03-29T19:23:22.743Z,45.63
2019-03-29T19:25:51.030Z,47.85
2019-03-29T19:28:19.425Z,43.13
2019-03-29T19:30:47.718Z,49.67
2019-03-29T19:33:16.082Z,47.60
2019-03-29T19:35:44.320Z,46.80
2019-03-29T19:38:12.648Z,45.65
2019-03-29T19:40:40.943Z,50.17
2019-03-29T19:43:09.166Z,42.05
2019-03-29T19:45:37.397Z,44.45
2019-03-29T19:48:05.725Z,43.73
2019-03-29T19:50:34.027Z,51.80
2019-03-29T19:53:02.372Z,45.85
2019-03-29T19:55:30.731Z,42.30
2019-03-29T19:57:59.099Z,45.63
2019-03-29T20:00:37.777Z,48.95
2019-03-29T20:03:06.040Z,50.55
2019-03-29T20:05:34.327Z,49.40
2019-03-29T20:08:02.560Z,48.50
2019-03-29T20:10:30.880Z,47.50
2019-03-29T20:12:59.152Z,48.38
2019-03-29T20:15:27.380Z,48.28
2019-03-29T20:17:55.711Z,46.70
2019-03-29T20:20:25.373Z,47.90
2019-03-29T20:22:54.926Z,51.05
2019-03-29T20:25:23.480Z,50.95
2019-03-29T20:27:51.699Z,48.45
2019-03-29T20:30:19.973Z,47.70
2019-03-29T20:32:48.351Z,44.35
2019-03-29T20:35:16.710Z,47.78
2019-03-29T20:37:44.954Z,51.58
2019-03-29T20:40:13.175Z,48.48
2019-03-29T20:42:41.540Z,49.65
2019-03-29T20:45:09.806Z,43.65
2019-03-29T20:47:42.445Z,51.48
2019-03-29T20:50:07.996Z,46.68
2019-03-29T20:52:36.248Z,53.65
2019-03-29T20:55:06.668Z,47.58
2019-03-29T20:57:35.093Z,46.60
2019-03-29T21:00:07.611Z,46.15
2019-03-29T21:02:35.855Z,47.98
2019-03-29T21:05:05.754Z,51.30
2019-03-29T21:07:33.976Z,52.60
2019-03-29T21:10:02.226Z,53.30
2019-03-29T21:12:30.459Z,46.35
2019-03-29T21:14:58.677Z,44.45
2019-03-29T21:17:26.918Z,47.08
2019-03-29T21:19:55.167Z,47.73
2019-03-29T21:22:23.402Z,48.23
2019-03-29T21:24:51.689Z,51.70
2019-03-29T21:27:19.984Z,56.80
2019-03-29T21:29:48.486Z,50.75
2019-03-29T21:32:16.776Z,52.35
2019-03-29T21:34:45.035Z,52.13
2019-03-29T21:37:13.265Z,52.08
2019-03-29T21:39:41.521Z,53.20
2019-03-29T21:42:09.947Z,52.05
2019-03-29T21:44:38.264Z,50.38
2019-03-29T21:47:06.496Z,53.95
2019-03-29T21:49:34.727Z,57.15
2019-03-29T21:52:02.951Z,53.48
2019-03-29T21:54:31.212Z,58.48
2019-03-29T21:56:59.436Z,58.70
2019-03-29T21:59:27.719Z,57.23
2019-03-29T22:01:55.935Z,58.87
2019-03-29T22:04:24.184Z,54.73
2019-03-29T22:06:53.313Z,57.48
2019-03-29T22:09:21.523Z,63.05
2019-03-29T22:11:49.884Z,61.20
2019-03-29T22:14:18.172Z,55.88
2019-03-29T22:16:46.395Z,60.58
2019-03-29T22:19:14.896Z,64.67
2019-03-29T22:21:43.127Z,64.80
